Time;durP1;ratioP1;P1;durP2;ratioP2;P2;SDS_P1;SDS_P2;PMS_P1;PMS_P2;Temp;Humidity;BMP_temperature;BMP_pressure;BME280_temperature;BME280_humidity;BME280_pressure;Samples;Min_cycle;Max_cycle;Signal;HPM_P1;HPM_P2
2021/04/13 00:01:15;;;;;;;10.95;5.28;;;3.90;99.90;;;;;;5065505;28;20194;-74
2021/04/13 00:03:47;;;;;;;3.72;2.03;;;3.80;99.90;;;;;;5069997;28;20081;-74
2021/04/13 00:06:32;;;;;;;11.00;4.97;;;3.90;99.90;;;;;;5066485;28;20036;-74
2021/04/13 00:09:07;;;;;;;6.90;4.22;;;3.80;99.90;;;;;;5052559;28;20090;-74
2021/04/13 00:11:35;;;;;;;8.65;4.85;;;4.00;99.90;;;;;;5071458;28;20036;-74
2021/04/13 00:14:01;;;;;;;8.98;4.60;;;3.70;99.90;;;;;;5070737;28;20089;-74
2021/04/13 00:16:30;;;;;;;9.23;4.75;;;3.40;99.90;;;;;;5070167;28;20032;-74
2021/04/13 00:18:57;;;;;;;7.97;4.00;;;3.10;99.90;;;;;;5070775;28;20025;-74
2021/04/13 00:21:26;;;;;;;12.75;6.15;;;3.10;99.90;;;;;;5052952;28;20029;-74
2021/04/13 00:23:52;;;;;;;16.35;7.28;;;3.30;99.90;;;;;;5052751;28;20469;-74
2021/04/13 00:26:22;;;;;;;18.27;9.00;;;3.40;99.90;;;;;;5052053;28;20025;-74
2021/04/13 00:28:48;;;;;;;;;;;3.50;99.90;;;;;;5053115;28;20049;-74
2021/04/13 00:34:34;;;;;;;10.07;4.72;;;3.40;99.90;;;;;;5048789;28;20562;-74
2021/04/13 00:37:23;;;;;;;7.45;4.20;;;3.20;99.90;;;;;;5045544;28;20036;-74
2021/04/13 00:39:50;;;;;;;6.90;3.97;;;3.00;99.90;;;;;;5047649;28;20021;-74
2021/04/13 00:42:24;;;;;;;5.47;3.30;;;2.70;99.90;;;;;;5048437;28;20630;-74
2021/04/13 00:44:56;;;;;;;7.30;4.05;;;2.50;99.90;;;;;;5048648;28;20044;-74
2021/04/13 00:47:35;;;;;;;9.10;4.45;;;2.60;99.90;;;;;;5048539;28;20013;-74
2021/04/13 00:50:10;;;;;;;6.20;3.45;;;2.70;99.90;;;;;;5048500;28;20048;-74
2021/04/13 00:52:40;;;;;;;8.80;3.50;;;2.50;99.90;;;;;;5031173;28;20460;-74
2021/04/13 00:55:10;;;;;;;6.72;3.80;;;2.20;99.90;;;;;;5049039;28;20072;-74
2021/04/13 00:57:40;;;;;;;;;;;2.20;99.90;;;;;;5050573;28;20473;-74
2021/04/13 01:00:08;;;;;;;4.28;2.22;;;2.20;99.90;;;;;;5050208;28;19904;-74
2021/04/13 01:02:35;;;;;;;4.35;3.00;;;2.30;99.90;;;;;;5051317;28;20086;-74
2021/04/13 01:05:10;;;;;;;7.40;4.45;;;2.20;99.90;;;;;;5050248;28;20132;-73
2021/04/13 01:07:45;;;;;;;5.15;4.00;;;2.10;99.90;;;;;;5049637;28;20024;-74
2021/04/13 01:10:32;;;;;;;5.80;3.35;;;2.40;99.90;;;;;;5061313;28;20094;-73
2021/04/13 01:13:09;;;;;;;4.32;3.40;;;2.40;99.90;;;;;;5072138;28;20035;-74
2021/04/13 01:15:37;;;;;;;5.22;3.47;;;2.40;99.90;;;;;;5072134;28;20146;-74
2021/04/13 01:18:13;;;;;;;5.68;3.15;;;2.50;99.90;;;;;;5072200;28;20024;-74
2021/04/13 01:20:59;;;;;;;5.30;3.10;;;2.50;99.90;;;;;;5071829;28;20017;-74
2021/04/13 01:23:36;;;;;;;5.40;3.03;;;2.60;99.90;;;;;;5072020;28;20495;-74
2021/04/13 01:26:04;;;;;;;5.85;2.65;;;2.40;99.90;;;;;;5066107;28;20029;-74
2021/04/13 01:28:34;;;;;;;4.70;2.80;;;2.30;99.90;;;;;;5051868;28;20048;-74
2021/04/13 01:31:42;;;;;;;3.58;2.78;;;2.10;99.90;;;;;;5055695;28;20025;-73
2021/04/13 01:34:07;;;;;;;3.55;1.90;;;2.20;99.90;;;;;;5051868;28;20048;-74
2021/04/13 01:36:34;;;;;;;2.70;1.80;;;2.00;99.90;;;;;;5067911;28;20484;-74
2021/04/13 01:39:25;;;;;;;3.08;2.30;;;2.00;99.90;;;;;;5071130;28;20090;-74
2021/04/13 01:42:00;;;;;;;3.95;2.67;;;2.20;99.90;;;;;;5071878;28;20032;-74
2021/04/13 01:44:44;;;;;;;7.13;1.98;;;2.40;99.90;;;;;;5071827;28;20024;-73
2021/04/13 01:47:14;;;;;;;3.67;2.40;;;2.40;99.90;;;;;;5071936;28;20138;-74
2021/04/13 01:49:49;;;;;;;3.55;2.67;;;1.90;99.90;;;;;;5071385;28;20035;-74
2021/04/13 01:52:26;;;;;;;8.98;4.20;;;1.70;99.90;;;;;;5071367;28;20118;-74
2021/04/13 01:54:52;;;;;;;14.63;6.00;;;1.50;99.90;;;;;;5070277;28;20028;-74
2021/04/13 01:57:35;;;;;;;5.13;2.40;;;1.40;99.90;;;;;;5071707;28;20557;-73
2021/04/13 02:00:15;;;;;;;5.78;2.28;;;1.40;99.90;;;;;;5071633;28;20036;-73
2021/04/13 02:03:07;;;;;;;10.23;3.65;;;1.50;99.90;;;;;;5071706;28;20020;-73
2021/04/13 02:05:37;;;;;;;7.57;3.70;;;1.50;99.90;;;;;;5070719;28;20048;-74
2021/04/13 02:08:28;;;;;;;;;;;1.50;99.90;;;;;;5072029;28;20058;-74
2021/04/13 02:11:02;;;;;;;2.83;2.30;;;1.50;99.90;;;;;;5064223;28;19912;-74
2021/04/13 02:13:41;;;;;;;3.88;2.33;;;1.50;99.90;;;;;;5071625;28;20039;-74
2021/04/13 02:16:17;;;;;;;3.50;1.80;;;1.40;99.90;;;;;;5071443;28;20028;-74
2021/04/13 02:18:49;;;;;;;2.88;2.40;;;1.30;99.90;;;;;;5071207;28;20270;-74
2021/04/13 02:21:30;;;;;;;6.07;3.03;;;1.20;99.90;;;;;;5070531;28;20525;-74
2021/04/13 02:24:02;;;;;;;2.95;2.40;;;1.30;99.90;;;;;;5061925;28;20111;-74
2021/04/13 02:26:29;;;;;;;4.05;2.10;;;1.60;99.90;;;;;;5070302;28;20032;-73
2021/04/13 02:28:57;;;;;;;6.05;2.35;;;1.80;99.90;;;;;;5071118;28;20102;-74
2021/04/13 02:31:48;;;;;;;4.15;2.15;;;1.80;99.90;;;;;;5071464;28;20017;-73
2021/04/13 02:34:24;;;;;;;3.72;2.20;;;1.90;99.90;;;;;;5070857;28;20032;-73
2021/04/13 02:36:55;;;;;;;1.60;1.38;;;1.90;99.90;;;;;;5055581;28;20037;-74
2021/04/13 02:39:27;;;;;;;2.88;1.77;;;1.80;99.90;;;;;;5071450;28;20032;-74
2021/04/13 02:42:00;;;;;;;4.22;2.05;;;1.20;99.90;;;;;;5071234;28;20035;-73
2021/04/13 02:44:26;;;;;;;4.65;1.90;;;1.00;99.90;;;;;;5071040;28;20029;-74
2021/04/13 02:46:55;;;;;;;4.93;2.75;;;0.80;99.90;;;;;;5069253;28;20393;-74
2021/04/13 02:49:22;;;;;;;6.97;3.38;;;0.90;99.90;;;;;;5072179;28;20116;-74
2021/04/13 02:51:55;;;;;;;4.47;2.63;;;0.90;99.90;;;;;;5074984;28;20020;-73
2021/04/13 02:54:39;;;;;;;5.65;3.63;;;0.90;99.90;;;;;;5068212;28;20060;-73
2021/04/13 02:57:10;;;;;;;3.78;2.28;;;0.70;99.90;;;;;;5054830;28;20028;-73
2021/04/13 02:59:37;;;;;;;2.40;2.20;;;0.90;99.90;;;;;;5054746;28;20036;-73
2021/04/13 03:02:06;;;;;;;3.92;2.50;;;1.20;99.90;;;;;;5064338;28;20633;-73
2021/04/13 03:04:45;;;;;;;4.45;2.10;;;1.10;99.90;;;;;;5054784;28;20059;-73
2021/04/13 03:07:20;;;;;;;3.33;2.45;;;1.00;99.90;;;;;;5071241;28;20484;-73
2021/04/13 03:09:46;;;;;;;8.48;2.72;;;0.70;99.90;;;;;;5074643;28;20492;-73
2021/04/13 03:12:14;;;;;;;5.60;3.53;;;0.40;99.90;;;;;;5074494;28;20056;-73
2021/04/13 03:14:48;;;;;;;2.33;2.13;;;0.40;99.90;;;;;;5074538;28;20476;-73
2021/04/13 03:17:18;;;;;;;3.42;2.38;;;0.90;99.90;;;;;;5073905;28;20041;-73
2021/04/13 03:19:47;;;;;;;4.40;2.97;;;1.20;99.90;;;;;;5073722;28;20089;-73
2021/04/13 03:22:15;;;;;;;4.40;3.08;;;1.50;99.90;;;;;;5074101;28;20047;-74
2021/04/13 03:24:45;;;;;;;6.22;2.70;;;1.50;99.90;;;;;;5074407;28;20036;-73
2021/04/13 03:27:19;;;;;;;4.68;2.63;;;1.20;99.90;;;;;;5074084;28;20040;-74
2021/04/13 03:29:57;;;;;;;5.30;2.38;;;0.90;99.90;;;;;;5074371;28;20056;-73
2021/04/13 03:32:26;;;;;;;3.58;2.90;;;0.60;99.90;;;;;;5073970;28;20469;-73
2021/04/13 03:34:52;;;;;;;4.93;3.17;;;0.50;99.90;;;;;;5073428;28;20052;-73
2021/04/13 03:37:18;;;;;;;3.83;2.33;;;0.50;99.90;;;;;;5073376;28;20055;-73
2021/04/13 03:39:46;;;;;;;4.43;2.40;;;0.70;99.90;;;;;;5073805;28;20086;-73
2021/04/13 03:42:20;;;;;;;4.45;2.38;;;0.60;99.90;;;;;;5073837;28;20064;-73
2021/04/13 03:44:47;;;;;;;4.03;2.45;;;0.70;99.90;;;;;;5073733;28;20029;-74
2021/04/13 03:47:26;;;;;;;5.40;3.13;;;0.60;99.90;;;;;;5072145;28;20020;-74
2021/04/13 03:49:52;;;;;;;5.70;3.33;;;0.70;99.90;;;;;;5073836;28;20035;-73
2021/04/13 03:52:26;;;;;;;5.78;4.57;;;0.70;99.90;;;;;;5073755;28;20028;-74
2021/04/13 03:54:52;;;;;;;3.90;3.30;;;0.90;99.90;;;;;;5073848;28;20078;-73
2021/04/13 03:57:28;;;;;;;3.70;3.08;;;0.70;99.90;;;;;;5073567;28;20033;-74
2021/04/13 03:59:58;;;;;;;4.13;3.28;;;0.70;99.90;;;;;;5073479;28;20434;-74
2021/04/13 04:02:23;;;;;;;4.10;3.15;;;0.70;99.90;;;;;;5072884;28;20048;-74
2021/04/13 04:05:15;;;;;;;5.38;3.50;;;0.70;99.90;;;;;;5072456;28;20535;-74
2021/04/13 04:08:00;;;;;;;3.97;2.67;;;0.70;99.90;;;;;;5072359;28;20043;-73
2021/04/13 04:10:44;;;;;;;3.60;2.70;;;0.60;99.90;;;;;;5073234;28;20063;-73
2021/04/13 04:13:16;;;;;;;5.45;3.95;;;0.30;99.90;;;;;;5073403;28;20028;-73
2021/04/13 04:15:42;;;;;;;6.63;3.95;;;0.00;99.90;;;;;;5070014;28;20040;-73
2021/04/13 04:18:20;;;;;;;9.40;6.03;;;0.00;99.90;;;;;;5070644;28;20024;-73
2021/04/13 04:20:46;;;;;;;9.05;5.53;;;0.00;99.90;;;;;;5070171;28;20032;-74
2021/04/13 04:23:17;;;;;;;8.40;4.72;;;-0.10;99.90;;;;;;5068502;28;20028;-74
2021/04/13 04:25:50;;;;;;;7.57;3.90;;;0.00;99.90;;;;;;5072790;28;20025;-73
2021/04/13 04:28:26;;;;;;;4.18;3.25;;;0.10;99.90;;;;;;5055636;28;20041;-74
2021/04/13 04:30:52;;;;;;;5.15;4.57;;;0.30;99.90;;;;;;5064759;28;20020;-73
2021/04/13 04:33:39;;;;;;;6.80;5.28;;;0.60;99.90;;;;;;5072872;28;20040;-73
2021/04/13 04:36:29;;;;;;;8.85;6.00;;;0.20;99.90;;;;;;5072773;28;20399;-73
2021/04/13 04:38:55;;;;;;;8.02;6.13;;;0.10;99.90;;;;;;5072153;28;20066;-73
2021/04/13 04:41:41;;;;;;;9.63;6.30;;;0.00;99.90;;;;;;5071481;28;20105;-73
2021/04/13 04:44:07;;;;;;;4.90;3.47;;;0.10;99.90;;;;;;5072357;28;20383;-73
2021/04/13 04:46:41;;;;;;;6.07;3.80;;;0.40;99.90;;;;;;5071726;28;20024;-74
2021/04/13 04:49:12;;;;;;;11.95;8.13;;;0.40;99.90;;;;;;5070585;28;20487;-74
2021/04/13 04:51:39;;;;;;;8.95;5.65;;;0.60;99.90;;;;;;5070325;28;20133;-73
2021/04/13 04:54:05;;;;;;;4.47;3.90;;;0.60;99.90;;;;;;5062285;28;20028;-73
2021/04/13 04:56:31;;;;;;;5.13;4.50;;;0.10;99.90;;;;;;5064351;28;20548;-73
2021/04/13 04:58:57;;;;;;;4.40;4.00;;;-0.10;99.90;;;;;;5064230;28;20056;-74
2021/04/13 05:01:22;;;;;;;4.18;3.65;;;0.00;99.90;;;;;;5071173;28;20488;-74
2021/04/13 05:03:48;;;;;;;8.00;3.97;;;0.00;99.90;;;;;;5065182;28;20028;-73
2021/04/13 05:06:14;;;;;;;6.88;3.45;;;0.00;99.90;;;;;;5071787;28;20419;-73
2021/04/13 05:08:40;;;;;;;6.78;4.38;;;-0.30;99.90;;;;;;5068276;28;20031;-73
2021/04/13 05:11:06;;;;;;;6.72;4.18;;;-0.50;99.90;;;;;;5060447;28;20112;-73
2021/04/13 05:13:32;;;;;;;5.90;3.50;;;-0.50;99.90;;;;;;5067553;28;20545;-74
2021/04/13 05:15:59;;;;;;;5.65;3.33;;;-0.50;99.90;;;;;;5070641;28;20086;-73
2021/04/13 05:18:25;;;;;;;6.53;4.05;;;-0.50;99.90;;;;;;5069965;28;20052;-73
2021/04/13 05:20:51;;;;;;;8.50;4.45;;;-0.30;99.90;;;;;;5058013;28;20142;-74
2021/04/13 05:23:18;;;;;;;10.63;5.60;;;0.10;99.90;;;;;;5069894;28;20389;-74
2021/04/13 05:25:43;;;;;;;9.10;5.57;;;0.20;99.90;;;;;;5071238;28;20027;-74
2021/04/13 05:28:09;;;;;;;11.90;6.18;;;0.20;99.90;;;;;;5070360;28;20048;-73
2021/04/13 05:30:35;;;;;;;11.00;5.43;;;0.30;99.90;;;;;;5070175;28;20020;-73
2021/04/13 05:33:01;;;;;;;7.68;4.80;;;0.20;99.90;;;;;;5071338;28;20028;-73
2021/04/13 05:35:27;;;;;;;11.30;6.22;;;-0.10;99.90;;;;;;5053999;28;20029;-74
2021/04/13 05:38:01;;;;;;;26.48;7.32;;;-0.30;99.90;;;;;;5053215;28;20017;-74
2021/04/13 05:40:32;;;;;;;17.30;10.32;;;0.00;99.90;;;;;;5067325;28;20040;-74
2021/04/13 05:42:59;;;;;;;13.73;8.80;;;0.20;99.90;;;;;;5057702;28;20615;-74
2021/04/13 05:45:32;;;;;;;8.75;6.28;;;0.20;99.90;;;;;;5060590;28;20033;-74
2021/04/13 05:47:59;;;;;;;9.85;7.03;;;0.10;99.90;;;;;;5060314;28;20036;-74
2021/04/13 05:50:26;;;;;;;10.75;6.70;;;0.00;99.90;;;;;;5064073;28;20396;-74
2021/04/13 05:52:52;;;;;;;12.82;6.50;;;0.00;99.90;;;;;;5059153;28;20116;-74
2021/04/13 05:55:18;;;;;;;14.13;7.22;;;-0.10;99.90;;;;;;5058084;28;20105;-74
2021/04/13 05:57:46;;;;;;;13.05;7.10;;;0.00;99.90;;;;;;5067320;28;20170;-73
2021/04/13 06:00:13;;;;;;;13.18;8.38;;;0.10;99.90;;;;;;5068223;28;20085;-73
2021/04/13 06:02:41;;;;;;;10.98;7.35;;;0.20;99.90;;;;;;5064150;28;20017;-75
2021/04/13 06:05:09;;;;;;;14.95;8.27;;;0.20;99.90;;;;;;5060338;28;20157;-73
2021/04/13 06:07:35;;;;;;;9.10;6.35;;;0.30;99.90;;;;;;5061449;28;20032;-76
2021/04/13 06:10:01;;;;;;;6.70;4.53;;;0.40;99.90;;;;;;5061565;28;20519;-73
2021/04/13 06:12:27;;;;;;;7.20;4.72;;;0.60;99.90;;;;;;5057631;28;20066;-73
2021/04/13 06:14:54;;;;;;;5.95;4.20;;;0.70;99.90;;;;;;5064230;28;20068;-73
2021/04/13 06:17:20;;;;;;;8.32;6.65;;;0.80;99.90;;;;;;5067227;28;20488;-73
2021/04/13 06:19:45;;;;;;;6.32;4.90;;;0.90;99.90;;;;;;5069373;28;20036;-73
2021/04/13 06:22:11;;;;;;;6.88;5.75;;;0.90;99.90;;;;;;5055230;28;20074;-73
2021/04/13 06:24:37;;;;;;;8.90;6.25;;;1.00;99.90;;;;;;5070955;28;20027;-73
2021/04/13 06:27:03;;;;;;;9.32;5.82;;;1.00;99.90;;;;;;5074320;28;20047;-73
2021/04/13 06:29:32;;;;;;;3.30;3.00;;;1.10;99.90;;;;;;5074044;28;20025;-73
2021/04/13 06:31:58;;;;;;;3.40;2.78;;;1.30;99.90;;;;;;5068840;28;20484;-73
2021/04/13 06:34:23;;;;;;;3.53;2.47;;;1.50;99.90;;;;;;5074430;28;20031;-73
2021/04/13 06:36:49;;;;;;;3.78;2.67;;;1.70;99.90;;;;;;5073695;28;20035;-73
2021/04/13 06:39:15;;;;;;;5.05;2.80;;;1.80;99.90;;;;;;5073388;28;20514;-73
2021/04/13 06:42:05;;;;;;;12.38;4.65;;;1.90;99.90;;;;;;5070260;28;20053;-73
2021/04/13 06:44:43;;;;;;;9.38;2.92;;;1.70;99.90;;;;;;5070570;28;20111;-74
2021/04/13 06:47:36;;;;;;;9.15;3.47;;;1.60;99.90;;;;;;5074556;28;20031;-73
2021/04/13 06:50:13;;;;;;;3.45;3.15;;;1.90;99.90;;;;;;5068817;28;20034;-73
2021/04/13 06:52:42;;;;;;;6.30;3.40;;;2.10;99.90;;;;;;5074292;28;20477;-73
2021/04/13 06:55:26;;;;;;;3.88;2.95;;;2.00;99.90;;;;;;5071160;28;20423;-73
2021/04/13 06:58:12;;;;;;;4.93;3.30;;;2.00;99.90;;;;;;5073163;28;20077;-73
2021/04/13 07:00:58;;;;;;;4.95;2.85;;;2.20;99.90;;;;;;5074110;28;20024;-73
2021/04/13 07:03:30;;;;;;;3.70;3.13;;;2.60;99.90;;;;;;5058694;28;20039;-73
2021/04/13 07:06:18;;;;;;;4.00;2.97;;;2.80;99.90;;;;;;5073599;28;20013;-73
2021/04/13 07:08:54;;;;;;;4.82;4.30;;;2.80;99.90;;;;;;5068250;28;20448;-73
2021/04/13 07:11:38;;;;;;;7.60;4.50;;;3.00;99.90;;;;;;5069940;28;20492;-73
2021/04/13 07:14:21;;;;;;;7.30;4.60;;;3.10;99.90;;;;;;5072007;28;20024;-73
2021/04/13 07:16:51;;;;;;;4.82;3.25;;;3.30;99.90;;;;;;5071194;28;20095;-73
2021/04/13 07:19:26;;;;;;;10.80;5.15;;;3.60;99.90;;;;;;5065336;28;20016;-73
2021/04/13 07:22:30;;;;;;;7.25;5.13;;;3.70;99.90;;;;;;5062990;28;20075;-73
2021/04/13 07:25:04;;;;;;;6.18;4.10;;;3.80;99.90;;;;;;5072463;28;20066;-73
2021/04/13 07:27:59;;;;;;;5.95;5.03;;;3.90;99.90;;;;;;5060060;28;20040;-73
2021/04/13 07:30:32;;;;;;;3.88;3.47;;;4.10;99.90;;;;;;5056694;28;20111;-73
2021/04/13 07:32:59;;;;;;;4.90;2.50;;;4.40;99.90;;;;;;5066223;28;20056;-73
2021/04/13 07:35:36;;;;;;;4.65;2.30;;;4.50;99.90;;;;;;5057078;28;20028;-73
2021/04/13 07:38:20;;;;;;;3.05;2.60;;;4.70;99.90;;;;;;5059619;28;20548;-74
2021/04/13 07:40:50;;;;;;;2.38;1.98;;;4.90;99.90;;;;;;5065550;28;20407;-74
2021/04/13 07:43:30;;;;;;;3.03;2.75;;;5.00;99.90;;;;;;5063334;28;20070;-73
2021/04/13 07:46:15;;;;;;;;;;;5.10;99.90;;;;;;5054629;28;20544;-73
2021/04/13 07:49:07;;;;;;;2.80;2.35;;;5.20;99.90;;;;;;5071827;28;19909;-73
2021/04/13 07:51:37;;;;;;;2.65;2.45;;;5.40;99.90;;;;;;5054162;28;20048;-74
2021/04/13 07:54:15;;;;;;;3.28;2.47;;;5.50;99.90;;;;;;5071532;28;20033;-74
2021/04/13 07:56:50;;;;;;;4.85;2.60;;;5.60;99.90;;;;;;5068870;28;20059;-74
2021/04/13 07:59:28;;;;;;;2.42;2.22;;;5.70;99.90;;;;;;5071363;28;20037;-74
2021/04/13 08:01:55;;;;;;;6.00;2.35;;;5.90;99.90;;;;;;5063226;28;20127;-74
2021/04/13 08:04:24;;;;;;;3.88;2.60;;;6.10;99.90;;;;;;5063993;28;20082;-74
2021/04/13 08:06:53;;;;;;;2.38;1.88;;;6.20;99.90;;;;;;5059338;28;21174;-74
2021/04/13 08:09:40;;;;;;;2.63;1.80;;;6.40;99.90;;;;;;5071288;28;20020;-74
2021/04/13 08:12:06;;;;;;;5.10;2.13;;;6.60;99.90;;;;;;5071360;28;20485;-74
2021/04/13 08:14:34;;;;;;;4.57;1.75;;;6.80;99.90;;;;;;5075563;28;20031;-74
2021/04/13 08:17:07;;;;;;;2.33;1.73;;;7.10;99.90;;;;;;5068595;28;20387;-74
2021/04/13 08:19:34;;;;;;;3.25;1.45;;;7.30;96.40;;;;;;5066702;28;20068;-74
2021/04/13 08:22:11;;;;;;;3.72;2.38;;;7.50;96.40;;;;;;5062635;28;20028;-74
2021/04/13 08:24:47;;;;;;;2.53;1.60;;;7.70;94.80;;;;;;5070607;28;20029;-74
2021/04/13 08:27:42;;;;;;;5.20;1.80;;;7.90;89.40;;;;;;5058175;28;20040;-74
2021/04/13 08:30:26;;;;;;;1.98;1.77;;;8.20;90.80;;;;;;5059199;28;20100;-74
2021/04/13 08:33:25;;;;;;;1.70;1.40;;;8.60;92.70;;;;;;5071494;28;20240;-74
2021/04/13 08:36:06;;;;;;;3.97;2.33;;;9.00;88.10;;;;;;5060682;28;20485;-74
2021/04/13 08:38:55;;;;;;;3.20;1.70;;;9.30;87.10;;;;;;5058047;28;20029;-74
2021/04/13 08:41:27;;;;;;;3.03;1.70;;;9.60;71.90;;;;;;5060048;28;20025;-74
2021/04/13 08:44:19;;;;;;;3.55;1.50;;;9.90;78.40;;;;;;5060191;28;20060;-74
2021/04/13 08:46:55;;;;;;;4.30;1.70;;;10.10;74.50;;;;;;5056131;28;20032;-74
2021/04/13 08:49:37;;;;;;;3.15;1.38;;;10.30;72.60;;;;;;5056927;28;20052;-74
2021/04/13 08:52:42;;;;;;;2.80;1.38;;;10.40;68.50;;;;;;5059578;28;20024;-74
2021/04/13 08:55:17;;;;;;;2.55;1.50;;;10.90;74.80;;;;;;5058725;28;20458;-74
2021/04/13 10:01:08;;;;;;;2.10;2.00;;;24.90;40.90;;;;;;5088069;27;20397;-76
2021/04/13 10:03:52;;;;;;;2.08;1.88;;;21.60;39.50;;;;;;5084769;28;20032;-77
2021/04/13 10:06:24;;;;;;;2.40;2.20;;;22.30;41.90;;;;;;5070084;28;20028;-77
2021/04/13 10:08:55;;;;;;;2.63;2.33;;;23.60;39.60;;;;;;5074696;28;20112;-77
2021/04/13 10:12:13;;;;;;;3.13;2.05;;;23.40;43.80;;;;;;5079106;28;20021;-77
2021/04/13 10:14:44;;;;;;;2.55;2.10;;;23.80;41.90;;;;;;5046880;28;20040;-77
2021/04/13 10:17:24;;;;;;;2.15;1.80;;;26.10;39.20;;;;;;5045974;28;20061;-77
2021/04/13 10:20:24;;;;;;;2.15;1.70;;;26.70;38.60;;;;;;5062708;28;20563;-77
2021/04/13 10:23:26;;;;;;;4.88;2.22;;;24.50;39.90;;;;;;5046485;28;20472;-77
2021/04/13 10:26:14;;;;;;;2.17;1.80;;;22.70;37.90;;;;;;5047501;28;20048;-77
2021/04/13 10:29:05;;;;;;;3.53;2.05;;;23.30;43.80;;;;;;5045887;28;20040;-77
2021/04/13 10:31:40;;;;;;;3.53;2.13;;;22.80;43.10;;;;;;5045274;28;20510;-77
2021/04/13 10:34:33;;;;;;;3.40;2.33;;;22.70;44.20;;;;;;5051704;28;20029;-78
2021/04/13 10:37:38;;;;;;;3.17;2.10;;;23.00;38.70;;;;;;5059331;28;20174;-76
2021/04/13 10:40:36;;;;;;;22.98;2.45;;;25.50;42.60;;;;;;5048792;28;20032;-76
2021/04/13 10:43:26;;;;;;;1.90;1.70;;;26.40;38.20;;;;;;5049285;28;20490;-76
2021/04/13 10:46:04;;;;;;;3.45;1.92;;;25.50;36.60;;;;;;5048784;28;20053;-77
2021/04/13 10:48:41;;;;;;;2.20;2.00;;;25.70;38.80;;;;;;5051503;28;20112;-77
2021/04/13 10:51:31;;;;;;;6.32;2.30;;;26.10;35.50;;;;;;5052288;28;20554;-77
2021/04/13 10:54:05;;;;;;;;;;;26.10;33.50;;;;;;5050538;28;20060;-77
2021/04/13 10:57:02;;;;;;;3.08;2.30;;;27.30;36.50;;;;;;5057616;28;19912;-77
2021/04/13 11:00:05;;;;;;;2.10;1.90;;;27.80;36.00;;;;;;5045481;28;20053;-77
2021/04/13 11:03:09;;;;;;;4.00;2.17;;;27.30;33.80;;;;;;5052981;28;20068;-77
2021/04/13 11:06:08;;;;;;;2.80;2.50;;;28.70;34.90;;;;;;5038831;28;20095;-77
2021/04/13 11:09:00;;;;;;;2.63;2.17;;;28.40;36.00;;;;;;5034709;28;20052;-77
2021/04/13 11:11:59;;;;;;;2.17;2.08;;;29.90;35.20;;;;;;5000269;28;20074;-77
2021/04/13 11:15:12;;;;;;;2.95;2.13;;;27.50;33.90;;;;;;5000273;28;20021;-77
2021/04/13 11:17:57;;;;;;;2.05;1.95;;;27.00;35.20;;;;;;4990467;28;20492;-77
2021/04/13 11:20:29;;;;;;;3.00;2.08;;;27.60;36.50;;;;;;5004709;28;20527;-77
2021/04/13 11:22:58;;;;;;;2.40;2.20;;;26.40;32.20;;;;;;4997316;28;20101;-77
2021/04/13 11:25:23;;;;;;;2.40;2.20;;;26.20;35.40;;;;;;4996621;28;20041;-77
2021/04/13 11:27:52;;;;;;;2.75;2.20;;;27.60;34.30;;;;;;4987236;28;20038;-77
2021/04/13 11:30:23;;;;;;;4.13;1.88;;;27.90;33.70;;;;;;5002727;28;20041;-77
2021/04/13 11:33:17;;;;;;;1.60;1.48;;;28.80;36.70;;;;;;4998938;28;20068;-77
2021/04/13 11:35:51;;;;;;;2.58;2.33;;;28.40;36.90;;;;;;4999856;28;20068;-77
2021/04/13 11:38:38;;;;;;;2.00;1.90;;;27.90;36.80;;;;;;5002885;28;20053;-76
2021/04/13 11:41:16;;;;;;;3.13;1.70;;;26.80;35.00;;;;;;5005967;28;20055;-76
2021/04/13 11:44:15;;;;;;;2.15;1.98;;;25.90;37.90;;;;;;5009755;28;20518;-76
2021/04/13 11:47:06;;;;;;;2.25;2.05;;;27.00;36.10;;;;;;4986277;28;20615;-76
2021/04/13 11:49:58;;;;;;;1.95;1.77;;;26.40;37.60;;;;;;5039380;28;20036;-76
2021/04/13 11:52:29;;;;;;;2.03;1.88;;;24.20;37.70;;;;;;5041408;28;20486;-76
2021/04/13 11:54:56;;;;;;;4.15;2.00;;;23.70;39.00;;;;;;5037729;28;20406;-76
2021/04/13 11:57:26;;;;;;;2.00;1.80;;;24.80;38.30;;;;;;5045573;28;20016;-76
2021/04/13 12:00:10;;;;;;;3.70;1.77;;;27.10;37.30;;;;;;5043911;28;20083;-76
2021/04/13 12:02:43;;;;;;;1.98;1.60;;;26.80;34.70;;;;;;5047622;28;20123;-76
2021/04/13 12:05:33;;;;;;;1.67;1.58;;;26.70;35.40;;;;;;5047408;28;20029;-76
2021/04/13 12:08:01;;;;;;;1.85;1.60;;;26.40;34.90;;;;;;5049657;28;20032;-76
2021/04/13 12:10:30;;;;;;;2.38;2.17;;;26.40;35.70;;;;;;5042389;28;20044;-76
2021/04/13 12:13:00;;;;;;;1.70;1.58;;;27.60;38.10;;;;;;5037638;28;20030;-76
2021/04/13 12:15:26;;;;;;;1.60;1.50;;;25.60;34.60;;;;;;5039416;28;20021;-76
2021/04/13 12:17:59;;;;;;;1.90;1.48;;;26.30;37.60;;;;;;5043625;28;20114;-76
2021/04/13 12:20:26;;;;;;;2.15;1.27;;;24.90;37.50;;;;;;5043064;28;20029;-76
2021/04/13 12:22:52;;;;;;;2.63;1.73;;;22.50;36.50;;;;;;5046128;28;20021;-76
2021/04/13 12:25:53;;;;;;;3.70;1.77;;;21.90;40.60;;;;;;5045524;28;20490;-75
2021/04/13 12:28:41;;;;;;;1.92;1.70;;;24.60;38.60;;;;;;5034884;28;20033;-75
2021/04/13 12:31:24;;;;;;;2.72;1.50;;;28.10;35.10;;;;;;5043877;28;20032;-75
2021/04/13 12:33:54;;;;;;;2.42;1.50;;;27.00;36.50;;;;;;5034024;28;20079;-75
2021/04/13 12:36:52;;;;;;;2.03;1.30;;;23.70;33.60;;;;;;5030494;28;20529;-75
2021/04/13 12:39:56;;;;;;;1.70;1.60;;;23.90;35.00;;;;;;5039386;28;20037;-74
2021/04/13 12:42:50;;;;;;;1.65;1.52;;;23.20;34.40;;;;;;4975968;28;20121;-75
2021/04/13 12:45:19;;;;;;;1.85;1.75;;;24.20;38.20;;;;;;4969157;28;20034;-75
2021/04/13 12:47:56;;;;;;;2.63;1.83;;;26.50;34.90;;;;;;4972718;28;20030;-75
2021/04/13 12:50:35;;;;;;;2.00;1.80;;;27.80;33.80;;;;;;4985121;28;20100;-75
2021/04/13 12:53:02;;;;;;;1.70;1.60;;;28.10;33.10;;;;;;4986347;28;20050;-76
2021/04/13 12:55:29;;;;;;;3.95;2.30;;;27.40;34.50;;;;;;4971554;28;20100;-75
2021/04/13 12:58:01;;;;;;;2.60;1.75;;;27.50;34.60;;;;;;4984311;28;20026;-75
2021/04/13 13:00:33;;;;;;;2.10;1.90;;;27.40;34.40;;;;;;4982202;28;20120;-76
2021/04/13 13:03:22;;;;;;;3.15;2.00;;;27.20;32.30;;;;;;4955804;28;20038;-75
2021/04/13 13:05:49;;;;;;;3.15;1.65;;;26.50;34.40;;;;;;4953226;28;20043;-75
2021/04/13 13:08:23;;;;;;;2.03;1.92;;;26.00;32.60;;;;;;4967320;28;20504;-75
2021/04/13 13:10:51;;;;;;;2.17;1.80;;;25.30;34.80;;;;;;4954152;28;20127;-76
2021/04/13 13:13:30;;;;;;;2.35;2.10;;;23.00;36.40;;;;;;4997267;28;20071;-75
2021/04/13 13:15:58;;;;;;;3.05;1.80;;;22.80;39.80;;;;;;5038584;28;20029;-75
2021/04/13 13:18:30;;;;;;;7.82;2.00;;;21.50;39.10;;;;;;5036775;28;20068;-75
2021/04/13 13:21:03;;;;;;;2.65;1.75;;;21.10;40.30;;;;;;5040244;28;20108;-75
2021/04/13 13:23:35;;;;;;;2.22;1.63;;;21.00;39.70;;;;;;5034261;28;20056;-75
2021/04/13 13:26:11;;;;;;;3.25;1.85;;;20.70;40.80;;;;;;5038127;28;20033;-78
2021/04/13 13:28:43;;;;;;;1.80;1.70;;;21.70;41.70;;;;;;5038030;28;20025;-75
2021/04/13 13:31:12;;;;;;;1.92;1.83;;;22.20;38.30;;;;;;5037716;28;20029;-75
2021/04/13 13:33:38;;;;;;;2.30;1.80;;;22.50;39.10;;;;;;5049503;28;20031;-75
2021/04/13 13:36:05;;;;;;;2.80;2.35;;;23.90;37.60;;;;;;5040257;28;20112;-76
2021/04/13 13:38:32;;;;;;;1.65;1.52;;;24.20;33.10;;;;;;5038188;28;20040;-75
2021/04/13 13:41:01;;;;;;;1.90;1.80;;;22.70;36.50;;;;;;5038275;28;20067;-75
2021/04/13 13:43:28;;;;;;;4.00;2.15;;;23.30;38.10;;;;;;5036223;28;20498;-75
2021/04/13 13:46:26;;;;;;;2.22;1.80;;;26.10;37.40;;;;;;5047228;28;20033;-75
2021/04/13 13:48:53;;;;;;;2.30;2.10;;;29.20;31.90;;;;;;5032037;28;20489;-75
2021/04/13 13:51:37;;;;;;;6.55;2.20;;;28.90;32.40;;;;;;5047536;28;20029;-75
2021/04/13 13:54:22;;;;;;;2.90;1.65;;;29.00;31.00;;;;;;5034886;28;21453;-75
2021/04/13 13:56:48;;;;;;;4.75;1.80;;;26.50;33.20;;;;;;5035719;28;20021;-75
2021/04/13 13:59:42;;;;;;;1.70;1.60;;;24.90;31.40;;;;;;5049315;28;20521;-75
2021/04/13 14:02:17;;;;;;;2.38;1.55;;;24.90;31.30;;;;;;5038795;28;20020;-75
2021/04/13 14:04:42;;;;;;;2.45;1.70;;;25.00;32.50;;;;;;5039828;28;20044;-75
2021/04/13 14:07:10;;;;;;;1.80;1.70;;;25.50;33.90;;;;;;5033025;28;20475;-76
2021/04/13 14:09:38;;;;;;;2.95;1.60;;;26.10;34.30;;;;;;5038872;28;20025;-76
2021/04/13 14:12:42;;;;;;;1.50;1.40;;;23.10;34.90;;;;;;5036633;28;20021;-75
2021/04/13 14:15:33;;;;;;;4.15;1.67;;;20.80;38.80;;;;;;5050455;28;20025;-75
2021/04/13 14:18:06;;;;;;;2.03;1.65;;;19.40;40.30;;;;;;5040731;28;20053;-75
2021/04/13 14:20:32;;;;;;;5.32;2.25;;;18.40;38.40;;;;;;5029552;28;20022;-75
2021/04/13 14:23:11;;;;;;;1.73;1.58;;;17.80;38.60;;;;;;5031502;28;20064;-75
2021/04/13 14:25:38;;;;;;;5.78;1.70;;;17.80;42.50;;;;;;5029238;28;20056;-75
2021/04/13 14:28:26;;;;;;;3.53;1.67;;;17.30;36.70;;;;;;5031109;28;20109;-75
2021/04/13 14:30:55;;;;;;;1.98;1.73;;;17.00;39.00;;;;;;5044632;28;20032;-75
2021/04/13 14:33:22;;;;;;;3.83;2.03;;;16.90;39.90;;;;;;5051109;28;20033;-75
2021/04/13 14:35:49;;;;;;;3.20;1.42;;;17.30;44.10;;;;;;5034738;28;20025;-75
2021/04/13 14:38:21;;;;;;;3.17;1.58;;;17.00;39.10;;;;;;5041640;28;20021;-74
2021/04/13 14:40:47;;;;;;;4.63;1.70;;;16.80;41.90;;;;;;5037005;28;20072;-74
2021/04/13 14:43:13;;;;;;;4.90;1.80;;;17.20;45.00;;;;;;5053923;28;20063;-74